sensor_id;sensor_type;location;lat;lon;timestamp;P1;durP1;ratioP1;P2;durP2;ratioP2
55827;SDS011;41758;51.992;5.890;2023-01-16T00:00:46;4.82;;;2.40;;
55827;SDS011;41758;51.992;5.890;2023-01-16T00:03:17;6.45;;;2.40;;
55827;SDS011;41758;51.992;5.890;2023-01-16T00:05:43;5.30;;;2.25;;
55827;SDS011;41758;51.992;5.890;2023-01-16T00:08:09;5.38;;;2.03;;
55827;SDS011;41758;51.992;5.890;2023-01-16T00:10:38;4.40;;;2.22;;
55827;SDS011;41758;51.992;5.890;2023-01-16T00:13:04;3.10;;;1.85;;
55827;SDS011;41758;51.992;5.890;2023-01-16T00:15:30;6.55;;;2.13;;
55827;SDS011;41758;51.992;5.890;2023-01-16T00:17:57;4.82;;;2.10;;
55827;SDS011;41758;51.992;5.890;2023-01-16T00:20:22;4.85;;;2.47;;
55827;SDS011;41758;51.992;5.890;2023-01-16T00:22:51;8.55;;;2.55;;
55827;SDS011;41758;51.992;5.890;2023-01-16T00:28:52;5.85;;;2.72;;
55827;SDS011;41758;51.992;5.890;2023-01-16T00:31:18;5.22;;;2.58;;
55827;SDS011;41758;51.992;5.890;2023-01-16T00:33:47;5.13;;;3.03;;
55827;SDS011;41758;51.992;5.890;2023-01-16T00:36:13;5.22;;;2.88;;
55827;SDS011;41758;51.992;5.890;2023-01-16T00:38:39;5.45;;;3.53;;
55827;SDS011;41758;51.992;5.890;2023-01-16T00:41:04;7.30;;;3.28;;
55827;SDS011;41758;51.992;5.890;2023-01-16T00:43:36;4.95;;;3.75;;
55827;SDS011;41758;51.992;5.890;2023-01-16T00:46:02;6.47;;;3.35;;
55827;SDS011;41758;51.992;5.890;2023-01-16T00:48:28;6.70;;;3.97;;
55827;SDS011;41758;51.992;5.890;2023-01-16T00:50:56;6.10;;;3.78;;
55827;SDS011;41758;51.992;5.890;2023-01-16T00:53:22;7.57;;;4.88;;
55827;SDS011;41758;51.992;5.890;2023-01-16T00:55:57;9.90;;;5.45;;
55827;SDS011;41758;51.992;5.890;2023-01-16T00:58:23;9.00;;;5.95;;
55827;SDS011;41758;51.992;5.890;2023-01-16T01:00:48;10.38;;;6.75;;
55827;SDS011;41758;51.992;5.890;2023-01-16T01:03:14;11.43;;;6.20;;
55827;SDS011;41758;51.992;5.890;2023-01-16T01:05:40;9.50;;;6.28;;
55827;SDS011;41758;51.992;5.890;2023-01-16T01:08:06;10.05;;;6.60;;
55827;SDS011;41758;51.992;5.890;2023-01-16T01:10:32;10.95;;;6.95;;
55827;SDS011;41758;51.992;5.890;2023-01-16T01:13:01;10.80;;;7.18;;
55827;SDS011;41758;51.992;5.890;2023-01-16T01:15:27;9.80;;;7.05;;
55827;SDS011;41758;51.992;5.890;2023-01-16T01:17:52;11.07;;;7.60;;
55827;SDS011;41758;51.992;5.890;2023-01-16T01:20:29;11.85;;;8.20;;
55827;SDS011;41758;51.992;5.890;2023-01-16T01:22:55;10.82;;;7.53;;
55827;SDS011;41758;51.992;5.890;2023-01-16T01:25:21;13.93;;;7.75;;
55827;SDS011;41758;51.992;5.890;2023-01-16T01:27:47;12.00;;;7.55;;
55827;SDS011;41758;51.992;5.890;2023-01-16T01:30:13;9.40;;;7.07;;
55827;SDS011;41758;51.992;5.890;2023-01-16T01:32:39;9.88;;;7.18;;
55827;SDS011;41758;51.992;5.890;2023-01-16T01:35:08;10.48;;;7.43;;
55827;SDS011;41758;51.992;5.890;2023-01-16T01:37:34;11.32;;;7.55;;
55827;SDS011;41758;51.992;5.890;2023-01-16T01:40:00;11.05;;;7.78;;
55827;SDS011;41758;51.992;5.890;2023-01-16T01:42:27;10.13;;;7.25;;
55827;SDS011;41758;51.992;5.890;2023-01-16T01:45:15;9.85;;;6.75;;
55827;SDS011;41758;51.992;5.890;2023-01-16T01:47:48;8.25;;;5.93;;
55827;SDS011;41758;51.992;5.890;2023-01-16T01:50:39;9.15;;;5.80;;
55827;SDS011;41758;51.992;5.890;2023-01-16T01:53:08;7.20;;;5.32;;
55827;SDS011;41758;51.992;5.890;2023-01-16T01:58:11;8.32;;;5.25;;
55827;SDS011;41758;51.992;5.890;2023-01-16T02:00:45;13.20;;;5.95;;
55827;SDS011;41758;51.992;5.890;2023-01-16T02:03:13;10.07;;;4.60;;
55827;SDS011;41758;51.992;5.890;2023-01-16T02:05:42;8.32;;;4.80;;
55827;SDS011;41758;51.992;5.890;2023-01-16T02:08:18;9.23;;;4.45;;
55827;SDS011;41758;51.992;5.890;2023-01-16T02:13:27;9.82;;;4.20;;
55827;SDS011;41758;51.992;5.890;2023-01-16T02:15:55;8.90;;;4.05;;
55827;SDS011;41758;51.992;5.890;2023-01-16T02:18:40;6.03;;;3.63;;
55827;SDS011;41758;51.992;5.890;2023-01-16T02:27:31;7.93;;;3.35;;
55827;SDS011;41758;51.992;5.890;2023-01-16T02:44:20;10.40;;;3.20;;
55827;SDS011;41758;51.992;5.890;2023-01-16T02:47:03;6.20;;;2.70;;
55827;SDS011;41758;51.992;5.890;2023-01-16T02:54:57;4.47;;;2.40;;
55827;SDS011;41758;51.992;5.890;2023-01-16T02:57:43;4.65;;;2.10;;
55827;SDS011;41758;51.992;5.890;2023-01-16T03:00:13;7.90;;;2.90;;
55827;SDS011;41758;51.992;5.890;2023-01-16T03:02:42;7.15;;;2.35;;
55827;SDS011;41758;51.992;5.890;2023-01-16T03:05:08;5.72;;;2.10;;
55827;SDS011;41758;51.992;5.890;2023-01-16T03:13:21;4.47;;;2.17;;
55827;SDS011;41758;51.992;5.890;2023-01-16T03:16:10;6.38;;;2.40;;
55827;SDS011;41758;51.992;5.890;2023-01-16T03:19:04;4.22;;;2.35;;
55827;SDS011;41758;51.992;5.890;2023-01-16T03:24:26;6.25;;;2.30;;
55827;SDS011;41758;51.992;5.890;2023-01-16T03:26:58;8.73;;;2.75;;
55827;SDS011;41758;51.992;5.890;2023-01-16T03:29:33;8.77;;;2.38;;
55827;SDS011;41758;51.992;5.890;2023-01-16T03:34:41;4.65;;;1.90;;
55827;SDS011;41758;51.992;5.890;2023-01-16T03:37:10;9.57;;;2.67;;
55827;SDS011;41758;51.992;5.890;2023-01-16T03:39:40;5.63;;;2.30;;
55827;SDS011;41758;51.992;5.890;2023-01-16T03:42:10;6.95;;;2.28;;
55827;SDS011;41758;51.992;5.890;2023-01-16T03:44:41;9.25;;;2.80;;
55827;SDS011;41758;51.992;5.890;2023-01-16T03:47:13;6.10;;;2.47;;
55827;SDS011;41758;51.992;5.890;2023-01-16T03:49:50;4.25;;;2.05;;
55827;SDS011;41758;51.992;5.890;2023-01-16T03:52:21;6.40;;;2.30;;
55827;SDS011;41758;51.992;5.890;2023-01-16T03:57:52;8.40;;;2.55;;
55827;SDS011;41758;51.992;5.890;2023-01-16T04:00:22;8.32;;;2.92;;
55827;SDS011;41758;51.992;5.890;2023-01-16T04:03:07;7.43;;;2.20;;
55827;SDS011;41758;51.992;5.890;2023-01-16T04:05:38;5.32;;;2.08;;
55827;SDS011;41758;51.992;5.890;2023-01-16T04:08:14;6.10;;;2.17;;
55827;SDS011;41758;51.992;5.890;2023-01-16T04:10:43;5.97;;;2.60;;
55827;SDS011;41758;51.992;5.890;2023-01-16T04:13:14;4.90;;;2.20;;
55827;SDS011;41758;51.992;5.890;2023-01-16T04:15:50;4.85;;;2.42;;
55827;SDS011;41758;51.992;5.890;2023-01-16T04:18:19;6.63;;;2.25;;
55827;SDS011;41758;51.992;5.890;2023-01-16T04:20:47;6.80;;;2.55;;
55827;SDS011;41758;51.992;5.890;2023-01-16T04:23:14;4.47;;;2.08;;
55827;SDS011;41758;51.992;5.890;2023-01-16T04:25:46;7.03;;;2.05;;
55827;SDS011;41758;51.992;5.890;2023-01-16T04:28:12;6.60;;;2.20;;
55827;SDS011;41758;51.992;5.890;2023-01-16T04:30:38;5.97;;;2.58;;
55827;SDS011;41758;51.992;5.890;2023-01-16T04:33:04;5.10;;;2.60;;
55827;SDS011;41758;51.992;5.890;2023-01-16T04:35:30;7.22;;;2.58;;
55827;SDS011;41758;51.992;5.890;2023-01-16T04:37:57;6.38;;;2.50;;
55827;SDS011;41758;51.992;5.890;2023-01-16T04:40:22;5.93;;;2.50;;
55827;SDS011;41758;51.992;5.890;2023-01-16T04:42:48;6.55;;;2.22;;
55827;SDS011;41758;51.992;5.890;2023-01-16T04:45:14;4.45;;;2.28;;
55827;SDS011;41758;51.992;5.890;2023-01-16T04:47:40;6.57;;;2.40;;
55827;SDS011;41758;51.992;5.890;2023-01-16T04:50:09;4.38;;;2.25;;
55827;SDS011;41758;51.992;5.890;2023-01-16T04:55:33;4.55;;;2.10;;
55827;SDS011;41758;51.992;5.890;2023-01-16T04:57:59;9.00;;;2.67;;
55827;SDS011;41758;51.992;5.890;2023-01-16T05:00:25;7.78;;;2.95;;
55827;SDS011;41758;51.992;5.890;2023-01-16T05:02:52;9.80;;;2.58;;
55827;SDS011;41758;51.992;5.890;2023-01-16T05:05:18;5.60;;;2.33;;
55827;SDS011;41758;51.992;5.890;2023-01-16T05:07:43;6.65;;;2.25;;
55827;SDS011;41758;51.992;5.890;2023-01-16T05:10:09;5.82;;;2.30;;
55827;SDS011;41758;51.992;5.890;2023-01-16T05:12:35;9.57;;;2.67;;
55827;SDS011;41758;51.992;5.890;2023-01-16T05:15:01;8.05;;;2.53;;
55827;SDS011;41758;51.992;5.890;2023-01-16T05:17:27;7.60;;;3.40;;
55827;SDS011;41758;51.992;5.890;2023-01-16T05:19:52;6.57;;;3.67;;
55827;SDS011;41758;51.992;5.890;2023-01-16T05:22:18;8.02;;;3.50;;
55827;SDS011;41758;51.992;5.890;2023-01-16T05:24:44;8.13;;;3.60;;
55827;SDS011;41758;51.992;5.890;2023-01-16T05:27:10;5.93;;;3.65;;
55827;SDS011;41758;51.992;5.890;2023-01-16T05:29:35;7.40;;;3.53;;
55827;SDS011;41758;51.992;5.890;2023-01-16T05:32:01;6.35;;;3.50;;
55827;SDS011;41758;51.992;5.890;2023-01-16T05:34:27;10.30;;;3.58;;
55827;SDS011;41758;51.992;5.890;2023-01-16T05:36:53;8.63;;;3.97;;
55827;SDS011;41758;51.992;5.890;2023-01-16T05:39:18;8.52;;;3.33;;
55827;SDS011;41758;51.992;5.890;2023-01-16T05:41:44;9.13;;;3.50;;
55827;SDS011;41758;51.992;5.890;2023-01-16T05:44:10;5.90;;;3.40;;
55827;SDS011;41758;51.992;5.890;2023-01-16T05:46:35;8.65;;;3.13;;
55827;SDS011;41758;51.992;5.890;2023-01-16T05:49:01;7.45;;;3.50;;
55827;SDS011;41758;51.992;5.890;2023-01-16T05:51:27;6.82;;;3.17;;
55827;SDS011;41758;51.992;5.890;2023-01-16T05:53:52;6.55;;;2.90;;
55827;SDS011;41758;51.992;5.890;2023-01-16T05:56:21;7.88;;;3.00;;
55827;SDS011;41758;51.992;5.890;2023-01-16T05:58:47;5.82;;;2.70;;
55827;SDS011;41758;51.992;5.890;2023-01-16T06:01:13;6.05;;;2.88;;
55827;SDS011;41758;51.992;5.890;2023-01-16T06:03:39;7.30;;;2.70;;
55827;SDS011;41758;51.992;5.890;2023-01-16T06:06:05;5.47;;;2.45;;
55827;SDS011;41758;51.992;5.890;2023-01-16T06:08:31;6.88;;;2.95;;
55827;SDS011;41758;51.992;5.890;2023-01-16T06:10:57;8.57;;;2.67;;
55827;SDS011;41758;51.992;5.890;2023-01-16T06:13:23;4.45;;;2.40;;
55827;SDS011;41758;51.992;5.890;2023-01-16T06:15:49;5.45;;;2.45;;
55827;SDS011;41758;51.992;5.890;2023-01-16T06:18:14;3.55;;;2.00;;
55827;SDS011;41758;51.992;5.890;2023-01-16T06:20:41;4.75;;;2.10;;
55827;SDS011;41758;51.992;5.890;2023-01-16T06:23:08;4.57;;;2.00;;
55827;SDS011;41758;51.992;5.890;2023-01-16T06:25:34;5.07;;;2.17;;
55827;SDS011;41758;51.992;5.890;2023-01-16T06:28:12;5.80;;;2.17;;
55827;SDS011;41758;51.992;5.890;2023-01-16T06:30:38;6.78;;;2.33;;
55827;SDS011;41758;51.992;5.890;2023-01-16T06:33:04;7.70;;;2.10;;
55827;SDS011;41758;51.992;5.890;2023-01-16T06:35:37;5.85;;;2.65;;
55827;SDS011;41758;51.992;5.890;2023-01-16T06:38:23;3.67;;;2.10;;
55827;SDS011;41758;51.992;5.890;2023-01-16T06:40:49;4.70;;;2.22;;
55827;SDS011;41758;51.992;5.890;2023-01-16T06:43:21;4.88;;;2.03;;
55827;SDS011;41758;51.992;5.890;2023-01-16T06:45:51;4.13;;;1.80;;
55827;SDS011;41758;51.992;5.890;2023-01-16T06:48:17;4.95;;;2.13;;
55827;SDS011;41758;51.992;5.890;2023-01-16T06:50:43;6.88;;;2.33;;
55827;SDS011;41758;51.992;5.890;2023-01-16T06:53:09;5.22;;;2.22;;
55827;SDS011;41758;51.992;5.890;2023-01-16T06:55:35;3.38;;;1.77;;
55827;SDS011;41758;51.992;5.890;2023-01-16T06:58:01;3.25;;;1.95;;
55827;SDS011;41758;51.992;5.890;2023-01-16T07:00:27;5.40;;;2.03;;
55827;SDS011;41758;51.992;5.890;2023-01-16T07:02:54;9.02;;;2.22;;
55827;SDS011;41758;51.992;5.890;2023-01-16T07:05:24;5.53;;;1.98;;
55827;SDS011;41758;51.992;5.890;2023-01-16T07:07:51;6.32;;;2.00;;
55827;SDS011;41758;51.992;5.890;2023-01-16T07:10:20;4.20;;;2.13;;
55827;SDS011;41758;51.992;5.890;2023-01-16T07:12:55;5.25;;;1.90;;
55827;SDS011;41758;51.992;5.890;2023-01-16T07:15:24;5.32;;;2.15;;
55827;SDS011;41758;51.992;5.890;2023-01-16T07:18:11;7.95;;;2.58;;
55827;SDS011;41758;51.992;5.890;2023-01-16T07:20:57;5.18;;;2.50;;
55827;SDS011;41758;51.992;5.890;2023-01-16T07:23:45;7.40;;;2.70;;
55827;SDS011;41758;51.992;5.890;2023-01-16T07:26:17;5.72;;;2.83;;
55827;SDS011;41758;51.992;5.890;2023-01-16T07:28:54;6.78;;;2.70;;
55827;SDS011;41758;51.992;5.890;2023-01-16T07:31:24;7.95;;;3.72;;
55827;SDS011;41758;51.992;5.890;2023-01-16T07:33:50;6.18;;;2.90;;
55827;SDS011;41758;51.992;5.890;2023-01-16T07:36:16;6.40;;;3.00;;
55827;SDS011;41758;51.992;5.890;2023-01-16T07:38:47;7.13;;;2.80;;
55827;SDS011;41758;51.992;5.890;2023-01-16T07:41:14;5.53;;;2.75;;
55827;SDS011;41758;51.992;5.890;2023-01-16T07:43:42;6.63;;;2.90;;
55827;SDS011;41758;51.992;5.890;2023-01-16T07:49:40;8.50;;;3.25;;
55827;SDS011;41758;51.992;5.890;2023-01-16T07:52:14;7.88;;;3.22;;
55827;SDS011;41758;51.992;5.890;2023-01-16T07:54:42;6.82;;;2.80;;
55827;SDS011;41758;51.992;5.890;2023-01-16T07:57:08;6.63;;;3.28;;
55827;SDS011;41758;51.992;5.890;2023-01-16T07:59:34;5.88;;;2.95;;
55827;SDS011;41758;51.992;5.890;2023-01-16T08:02:02;5.82;;;3.22;;
55827;SDS011;41758;51.992;5.890;2023-01-16T08:04:28;7.70;;;2.83;;
55827;SDS011;41758;51.992;5.890;2023-01-16T08:06:55;7.30;;;2.90;;
55827;SDS011;41758;51.992;5.890;2023-01-16T08:09:21;6.43;;;2.60;;
55827;SDS011;41758;51.992;5.890;2023-01-16T08:11:46;5.55;;;2.70;;
55827;SDS011;41758;51.992;5.890;2023-01-16T08:14:22;4.85;;;2.90;;
55827;SDS011;41758;51.992;5.890;2023-01-16T08:16:51;6.45;;;2.47;;
55827;SDS011;41758;51.992;5.890;2023-01-16T08:19:26;7.53;;;2.60;;
55827;SDS011;41758;51.992;5.890;2023-01-16T08:21:52;7.30;;;2.40;;
55827;SDS011;41758;51.992;5.890;2023-01-16T08:24:17;5.00;;;2.20;;
55827;SDS011;41758;51.992;5.890;2023-01-16T08:26:43;4.13;;;2.10;;
55827;SDS011;41758;51.992;5.890;2023-01-16T08:29:23;4.43;;;2.20;;
55827;SDS011;41758;51.992;5.890;2023-01-16T08:31:52;3.05;;;2.17;;
55827;SDS011;41758;51.992;5.890;2023-01-16T08:34:18;6.25;;;2.15;;
55827;SDS011;41758;51.992;5.890;2023-01-16T08:36:46;5.00;;;2.10;;
55827;SDS011;41758;51.992;5.890;2023-01-16T08:39:15;4.85;;;1.98;;
55827;SDS011;41758;51.992;5.890;2023-01-16T08:41:41;5.88;;;2.00;;
55827;SDS011;41758;51.992;5.890;2023-01-16T08:44:31;5.75;;;2.03;;
55827;SDS011;41758;51.992;5.890;2023-01-16T08:47:23;3.88;;;2.05;;
55827;SDS011;41758;51.992;5.890;2023-01-16T08:50:10;3.60;;;2.03;;
55827;SDS011;41758;51.992;5.890;2023-01-16T08:52:56;4.53;;;2.38;;
55827;SDS011;41758;51.992;5.890;2023-01-16T08:55:25;3.83;;;2.00;;
55827;SDS011;41758;51.992;5.890;2023-01-16T08:57:51;6.45;;;2.22;;
55827;SDS011;41758;51.992;5.890;2023-01-16T09:00:27;6.72;;;2.35;;
55827;SDS011;41758;51.992;5.890;2023-01-16T09:02:54;6.75;;;2.40;;
55827;SDS011;41758;51.992;5.890;2023-01-16T09:05:25;5.30;;;2.30;;
55827;SDS011;41758;51.992;5.890;2023-01-16T09:07:51;4.22;;;2.50;;
55827;SDS011;41758;51.992;5.890;2023-01-16T09:10:18;7.07;;;2.67;;
55827;SDS011;41758;51.992;5.890;2023-01-16T09:12:44;4.13;;;2.45;;
55827;SDS011;41758;51.992;5.890;2023-01-16T09:17:54;6.55;;;3.15;;
55827;SDS011;41758;51.992;5.890;2023-01-16T09:20:20;8.50;;;2.75;;
55827;SDS011;41758;51.992;5.890;2023-01-16T09:22:46;4.85;;;2.50;;
55827;SDS011;41758;51.992;5.890;2023-01-16T09:25:12;6.25;;;3.00;;
55827;SDS011;41758;51.992;5.890;2023-01-16T09:27:40;6.20;;;3.00;;
55827;SDS011;41758;51.992;5.890;2023-01-16T09:30:06;7.00;;;2.85;;
55827;SDS011;41758;51.992;5.890;2023-01-16T09:32:35;6.07;;;3.13;;
55827;SDS011;41758;51.992;5.890;2023-01-16T09:35:04;4.72;;;3.10;;
55827;SDS011;41758;51.992;5.890;2023-01-16T09:37:38;5.47;;;3.47;;
55827;SDS011;41758;51.992;5.890;2023-01-16T09:40:08;8.43;;;3.50;;
55827;SDS011;41758;51.992;5.890;2023-01-16T09:45:56;6.38;;;3.28;;
55827;SDS011;41758;51.992;5.890;2023-01-16T09:48:25;5.78;;;3.22;;
55827;SDS011;41758;51.992;5.890;2023-01-16T09:50:54;5.70;;;3.25;;
55827;SDS011;41758;51.992;5.890;2023-01-16T09:56:34;7.20;;;3.50;;
55827;SDS011;41758;51.992;5.890;2023-01-16T09:59:38;4.93;;;3.20;;
55827;SDS011;41758;51.992;5.890;2023-01-16T10:02:29;6.88;;;3.45;;
55827;SDS011;41758;51.992;5.890;2023-01-16T10:04:59;4.97;;;3.20;;
55827;SDS011;41758;51.992;5.890;2023-01-16T10:10:06;5.05;;;3.40;;
55827;SDS011;41758;51.992;5.890;2023-01-16T10:12:43;6.90;;;3.28;;
55827;SDS011;41758;51.992;5.890;2023-01-16T10:26:56;8.23;;;3.47;;
55827;SDS011;41758;51.992;5.890;2023-01-16T10:29:53;5.05;;;2.80;;
55827;SDS011;41758;51.992;5.890;2023-01-16T10:32:30;5.32;;;2.80;;
55827;SDS011;41758;51.992;5.890;2023-01-16T10:35:05;7.28;;;2.80;;
55827;SDS011;41758;51.992;5.890;2023-01-16T10:40:17;4.07;;;3.00;;
55827;SDS011;41758;51.992;5.890;2023-01-16T10:42:48;5.80;;;3.10;;
55827;SDS011;41758;51.992;5.890;2023-01-16T10:45:37;5.45;;;2.85;;
55827;SDS011;41758;51.992;5.890;2023-01-16T10:51:07;5.47;;;3.20;;
55827;SDS011;41758;51.992;5.890;2023-01-16T10:53:34;4.35;;;2.80;;
55827;SDS011;41758;51.992;5.890;2023-01-16T10:56:12;4.95;;;2.72;;
55827;SDS011;41758;51.992;5.890;2023-01-16T10:58:38;5.40;;;2.53;;
55827;SDS011;41758;51.992;5.890;2023-01-16T11:04:01;4.85;;;2.63;;
55827;SDS011;41758;51.992;5.890;2023-01-16T11:06:30;3.78;;;2.38;;
55827;SDS011;41758;51.992;5.890;2023-01-16T11:09:04;3.72;;;2.58;;
55827;SDS011;41758;51.992;5.890;2023-01-16T11:11:36;5.10;;;2.42;;
55827;SDS011;41758;51.992;5.890;2023-01-16T11:14:21;5.25;;;2.30;;
55827;SDS011;41758;51.992;5.890;2023-01-16T11:17:26;3.45;;;2.20;;
55827;SDS011;41758;51.992;5.890;2023-01-16T11:20:23;3.65;;;2.25;;
55827;SDS011;41758;51.992;5.890;2023-01-16T11:23:12;4.03;;;2.13;;
55827;SDS011;41758;51.992;5.890;2023-01-16T11:25:45;5.57;;;2.05;;
55827;SDS011;41758;51.992;5.890;2023-01-16T11:28:15;4.00;;;2.20;;
55827;SDS011;41758;51.992;5.890;2023-01-16T11:30:48;3.83;;;1.77;;
55827;SDS011;41758;51.992;5.890;2023-01-16T11:33:17;4.80;;;2.10;;
55827;SDS011;41758;51.992;5.890;2023-01-16T11:35:53;3.05;;;1.90;;
55827;SDS011;41758;51.992;5.890;2023-01-16T11:38:21;2.90;;;2.00;;
55827;SDS011;41758;51.992;5.890;2023-01-16T11:40:49;3.35;;;1.70;;
55827;SDS011;41758;51.992;5.890;2023-01-16T11:43:17;5.40;;;2.03;;
55827;SDS011;41758;51.992;5.890;2023-01-16T11:46:07;2.97;;;1.85;;
55827;SDS011;41758;51.992;5.890;2023-01-16T11:48:59;2.75;;;1.70;;
55827;SDS011;41758;51.992;5.890;2023-01-16T11:51:28;3.45;;;1.90;;
55827;SDS011;41758;51.992;5.890;2023-01-16T11:54:09;5.53;;;2.05;;
55827;SDS011;41758;51.992;5.890;2023-01-16T11:59:54;3.70;;;2.03;;
55827;SDS011;41758;51.992;5.890;2023-01-16T12:05:41;5.18;;;1.90;;
55827;SDS011;41758;51.992;5.890;2023-01-16T12:20:05;3.63;;;1.98;;
55827;SDS011;41758;51.992;5.890;2023-01-16T12:37:05;2.78;;;1.75;;
55827;SDS011;41758;51.992;5.890;2023-01-16T12:42:34;3.47;;;2.08;;
55827;SDS011;41758;51.992;5.890;2023-01-16T12:45:28;3.10;;;2.10;;
55827;SDS011;41758;51.992;5.890;2023-01-16T12:51:27;4.70;;;2.40;;
55827;SDS011;41758;51.992;5.890;2023-01-16T13:05:19;3.08;;;2.10;;
55827;SDS011;41758;51.992;5.890;2023-01-16T13:07:51;3.65;;;2.08;;
55827;SDS011;41758;51.992;5.890;2023-01-16T13:10:20;4.43;;;2.13;;
55827;SDS011;41758;51.992;5.890;2023-01-16T13:13:36;4.20;;;2.10;;
55827;SDS011;41758;51.992;5.890;2023-01-16T13:19:15;3.63;;;1.80;;
55827;SDS011;41758;51.992;5.890;2023-01-16T13:25:28;3.38;;;1.90;;
55827;SDS011;41758;51.992;5.890;2023-01-16T13:28:06;4.03;;;2.30;;
55827;SDS011;41758;51.992;5.890;2023-01-16T13:33:15;4.10;;;1.92;;
55827;SDS011;41758;51.992;5.890;2023-01-16T13:42:41;4.20;;;2.00;;
55827;SDS011;41758;51.992;5.890;2023-01-16T13:45:55;3.25;;;2.28;;
55827;SDS011;41758;51.992;5.890;2023-01-16T13:48:28;3.63;;;2.20;;
55827;SDS011;41758;51.992;5.890;2023-01-16T13:54:42;2.72;;;1.85;;
55827;SDS011;41758;51.992;5.890;2023-01-16T13:57:18;2.97;;;1.60;;
55827;SDS011;41758;51.992;5.890;2023-01-16T13:59:52;2.90;;;1.55;;
55827;SDS011;41758;51.992;5.890;2023-01-16T14:06:21;3.60;;;2.08;;
55827;SDS011;41758;51.992;5.890;2023-01-16T14:17:14;4.25;;;2.00;;
55827;SDS011;41758;51.992;5.890;2023-01-16T14:19:55;4.25;;;2.00;;
55827;SDS011;41758;51.992;5.890;2023-01-16T14:22:24;2.92;;;2.03;;
55827;SDS011;41758;51.992;5.890;2023-01-16T14:25:04;3.50;;;2.08;;
55827;SDS011;41758;51.992;5.890;2023-01-16T14:27:34;3.58;;;1.98;;
55827;SDS011;41758;51.992;5.890;2023-01-16T14:30:05;2.42;;;1.90;;
55827;SDS011;41758;51.992;5.890;2023-01-16T14:33:03;3.88;;;2.05;;
55827;SDS011;41758;51.992;5.890;2023-01-16T14:35:50;3.17;;;1.92;;
55827;SDS011;41758;51.992;5.890;2023-01-16T14:38:23;4.05;;;2.30;;
55827;SDS011;41758;51.992;5.890;2023-01-16T14:40:59;3.45;;;1.95;;
55827;SDS011;41758;51.992;5.890;2023-01-16T14:50:17;3.80;;;2.45;;
55827;SDS011;41758;51.992;5.890;2023-01-16T14:56:11;5.18;;;2.30;;
55827;SDS011;41758;51.992;5.890;2023-01-16T15:10:38;4.38;;;2.58;;
55827;SDS011;41758;51.992;5.890;2023-01-16T15:13:22;4.22;;;2.45;;
55827;SDS011;41758;51.992;5.890;2023-01-16T15:16:17;4.40;;;2.35;;
55827;SDS011;41758;51.992;5.890;2023-01-16T15:19:15;4.65;;;2.40;;
55827;SDS011;41758;51.992;5.890;2023-01-16T15:22:02;5.90;;;2.65;;
55827;SDS011;41758;51.992;5.890;2023-01-16T15:24:40;4.30;;;2.63;;
55827;SDS011;41758;51.992;5.890;2023-01-16T15:27:14;4.53;;;2.58;;
55827;SDS011;41758;51.992;5.890;2023-01-16T15:32:23;4.63;;;2.90;;
55827;SDS011;41758;51.992;5.890;2023-01-16T15:37:55;4.40;;;2.83;;
55827;SDS011;41758;51.992;5.890;2023-01-16T15:40:46;4.82;;;3.25;;
55827;SDS011;41758;51.992;5.890;2023-01-16T15:43:24;4.70;;;3.03;;
55827;SDS011;41758;51.992;5.890;2023-01-16T15:46:15;5.00;;;3.17;;
55827;SDS011;41758;51.992;5.890;2023-01-16T15:51:52;5.07;;;2.95;;
55827;SDS011;41758;51.992;5.890;2023-01-16T15:54:28;3.95;;;2.60;;
55827;SDS011;41758;51.992;5.890;2023-01-16T15:57:16;4.75;;;3.10;;
55827;SDS011;41758;51.992;5.890;2023-01-16T16:00:01;5.28;;;3.33;;
55827;SDS011;41758;51.992;5.890;2023-01-16T16:02:30;6.05;;;3.25;;
55827;SDS011;41758;51.992;5.890;2023-01-16T16:09:00;5.75;;;3.03;;
55827;SDS011;41758;51.992;5.890;2023-01-16T16:12:28;4.55;;;2.67;;
55827;SDS011;41758;51.992;5.890;2023-01-16T17:09:08;8.32;;;5.60;;
55827;SDS011;41758;51.992;5.890;2023-01-16T17:12:12;8.05;;;5.95;;
55827;SDS011;41758;51.992;5.890;2023-01-16T17:14:45;10.43;;;7.30;;
55827;SDS011;41758;51.992;5.890;2023-01-16T17:17:11;9.80;;;7.03;;
55827;SDS011;41758;51.992;5.890;2023-01-16T17:19:40;11.27;;;7.03;;
55827;SDS011;41758;51.992;5.890;2023-01-16T17:22:08;10.57;;;6.43;;
55827;SDS011;41758;51.992;5.890;2023-01-16T17:24:36;10.07;;;6.78;;
55827;SDS011;41758;51.992;5.890;2023-01-16T17:27:05;9.00;;;5.70;;
55827;SDS011;41758;51.992;5.890;2023-01-16T17:29:36;7.85;;;5.57;;
55827;SDS011;41758;51.992;5.890;2023-01-16T17:32:12;8.35;;;5.25;;
55827;SDS011;41758;51.992;5.890;2023-01-16T17:34:54;6.97;;;4.35;;
55827;SDS011;41758;51.992;5.890;2023-01-16T17:37:21;8.05;;;4.50;;
55827;SDS011;41758;51.992;5.890;2023-01-16T17:39:46;8.40;;;4.20;;
55827;SDS011;41758;51.992;5.890;2023-01-16T17:42:12;6.18;;;3.65;;
55827;SDS011;41758;51.992;5.890;2023-01-16T17:44:38;5.82;;;3.45;;
55827;SDS011;41758;51.992;5.890;2023-01-16T17:51:45;5.18;;;3.30;;
55827;SDS011;41758;51.992;5.890;2023-01-16T17:54:11;5.90;;;3.85;;
55827;SDS011;41758;51.992;5.890;2023-01-16T17:56:57;5.78;;;3.55;;
55827;SDS011;41758;51.992;5.890;2023-01-16T17:59:23;5.00;;;3.47;;
55827;SDS011;41758;51.992;5.890;2023-01-16T18:01:52;5.35;;;3.70;;
55827;SDS011;41758;51.992;5.890;2023-01-16T18:04:19;7.22;;;3.88;;
55827;SDS011;41758;51.992;5.890;2023-01-16T18:06:44;5.65;;;3.58;;
55827;SDS011;41758;51.992;5.890;2023-01-16T18:09:11;6.25;;;3.58;;
55827;SDS011;41758;51.992;5.890;2023-01-16T18:11:39;5.40;;;3.53;;
55827;SDS011;41758;51.992;5.890;2023-01-16T18:14:24;8.07;;;4.50;;
55827;SDS011;41758;51.992;5.890;2023-01-16T18:17:09;6.68;;;4.45;;
55827;SDS011;41758;51.992;5.890;2023-01-16T18:19:53;6.20;;;4.15;;
55827;SDS011;41758;51.992;5.890;2023-01-16T18:22:31;6.10;;;4.38;;
55827;SDS011;41758;51.992;5.890;2023-01-16T18:28:28;10.75;;;5.50;;
55827;SDS011;41758;51.992;5.890;2023-01-16T18:30:54;7.57;;;5.38;;
55827;SDS011;41758;51.992;5.890;2023-01-16T18:33:20;8.88;;;5.50;;
55827;SDS011;41758;51.992;5.890;2023-01-16T18:35:45;10.63;;;6.00;;
55827;SDS011;41758;51.992;5.890;2023-01-16T18:38:11;11.95;;;6.90;;
55827;SDS011;41758;51.992;5.890;2023-01-16T18:41:00;11.15;;;7.43;;
55827;SDS011;41758;51.992;5.890;2023-01-16T18:43:45;14.68;;;9.82;;
55827;SDS011;41758;51.992;5.890;2023-01-16T18:46:29;15.45;;;9.63;;
55827;SDS011;41758;51.992;5.890;2023-01-16T18:49:15;24.98;;;14.35;;
55827;SDS011;41758;51.992;5.890;2023-01-16T18:51:59;14.20;;;9.95;;
55827;SDS011;41758;51.992;5.890;2023-01-16T18:54:43;12.38;;;8.80;;
55827;SDS011;41758;51.992;5.890;2023-01-16T18:57:29;13.40;;;9.00;;
55827;SDS011;41758;51.992;5.890;2023-01-16T19:02:58;15.60;;;10.32;;
55827;SDS011;41758;51.992;5.890;2023-01-16T19:05:24;13.48;;;9.75;;
55827;SDS011;41758;51.992;5.890;2023-01-16T19:07:52;11.18;;;9.25;;
55827;SDS011;41758;51.992;5.890;2023-01-16T19:10:29;12.10;;;8.95;;
55827;SDS011;41758;51.992;5.890;2023-01-16T19:12:58;10.85;;;8.75;;
55827;SDS011;41758;51.992;5.890;2023-01-16T19:15:30;11.30;;;8.40;;
55827;SDS011;41758;51.992;5.890;2023-01-16T19:18:02;10.40;;;8.50;;
55827;SDS011;41758;51.992;5.890;2023-01-16T19:20:28;10.80;;;7.65;;
55827;SDS011;41758;51.992;5.890;2023-01-16T19:22:56;10.48;;;8.00;;
55827;SDS011;41758;51.992;5.890;2023-01-16T19:25:25;11.90;;;8.85;;
55827;SDS011;41758;51.992;5.890;2023-01-16T19:27:51;12.35;;;9.32;;
55827;SDS011;41758;51.992;5.890;2023-01-16T19:30:22;12.90;;;9.13;;
55827;SDS011;41758;51.992;5.890;2023-01-16T19:32:48;11.43;;;8.90;;
55827;SDS011;41758;51.992;5.890;2023-01-16T19:35:14;11.18;;;7.90;;
55827;SDS011;41758;51.992;5.890;2023-01-16T19:37:40;11.90;;;8.05;;
55827;SDS011;41758;51.992;5.890;2023-01-16T19:40:14;12.32;;;9.43;;
55827;SDS011;41758;51.992;5.890;2023-01-16T19:42:42;11.52;;;9.02;;
55827;SDS011;41758;51.992;5.890;2023-01-16T19:45:31;11.68;;;8.50;;